Метеостанция


АнтоновUKKM 091900Z AUTO 18003MPS 8000 // NCD 01/01 Q1010
БориспольUKBB 091900Z 19004MPS CAVOK 01/M00 Q1011 R18L/190055 R18R/CLRD// NOSIG
Гаврышовка (Винница)UKWW 091800Z 18004MPS CAVOK 02/M01 Q1010 R13/0///65 NOSIG
ДнепропетровскUKDD 091900Z 18004MPS 130V210 0050 R26/0400N FG VV000 01/01 Q1017 R26/210260 NOSIG
ЖуляныUKKK 091900Z 23002MPS 200V260 9000 NSC 02/00 Q1011 R26/190060 NOSIG
Запорожье(Мокрая)UKDE 091900Z 15003MPS 120V190 3100 BR OVC005 02/02 Q1018 R20L/290558 NOSIG
Ивано-ФранковскUKLI 091900Z 00000MPS 4200 BR NSC M01/M01 Q1008 R28/090070 NOSIG
Кривой РогUKDR 091900Z 11004MPS 090V150 0150 0100NE R18/0500N FG VV001 03/03 Q1016 R18/09//70 NOSIG
ЛьвовUKLL 091900Z 28002MPS CAVOK 05/03 Q1008 R31/CLRD// NOSIG
НиколаевUKON 091500Z 17005MPS CAVOK 07/05 Q1014 NOSIG
ОдессаUKOO 091900Z 18005MPS CAVOK 08/07 Q1014 R16/190056 NOSIG
РовноUKLR 091500Z 00000MPS 9999 SCT033 07/03 Q1007 NOSIG
УжгородUKLU 091600Z 12002MPS 070V160 9999 OVC020 07/03 Q1009 R10/090070 NOSIG
ХарьковUKHH 091900Z 19003MPS 2300 BR OVC002 02/02 Q1017 R25/0///81 NOSIG
ЧерновцыUKLN 091900Z 10001MPS 2200 BR NSC M00/M00 Q1009 R15/09//70 NOSIG
Скачать:
Скачать этот файл (Metar_шпаргалка.jpg)Расшифровка METAR[ ]4799 Кб
Вся информация, которая имеется в использовании на сайте и доступная для скачивания, получена исключительно из открытых источников информации сети Интернет, всякое совпадение с данными, имеющими ограничения в доступе, случайное и не является преднамеренным.
^ Наверх